TimeMDT,TemperatureF,Dew PointF,Humidity,Sea Level PressureIn,VisibilityMPH,Wind Direction,Wind SpeedMPH,Gust SpeedMPH,PrecipitationIn,Events,Conditions,WindDirDegrees,DateUTC
12:55 AM,62.6,41.0,45,29.97,25.0,South,15.0,-,N/A,,Scattered Clouds,190,2013-06-18 06:55:00
1:55 AM,62.6,42.8,48,29.97,25.0,SW,12.7,-,N/A,,Mostly Cloudy,230,2013-06-18 07:55:00
2:55 AM,59.0,42.8,55,29.98,25.0,WSW,8.1,-,N/A,,Scattered Clouds,250,2013-06-18 08:55:00
3:55 AM,57.2,48.2,72,29.97,25.0,WSW,3.5,-,N/A,,Scattered Clouds,250,2013-06-18 09:55:00
4:55 AM,55.4,50.0,82,29.97,25.0,West,9.2,-,N/A,,Scattered Clouds,270,2013-06-18 10:55:00
5:55 AM,53.6,51.8,94,29.99,25.0,WNW,3.5,-,N/A,,Partly Cloudy,290,2013-06-18 11:55:00
6:55 AM,55.4,51.8,88,29.99,25.0,West,3.5,-,N/A,,Partly Cloudy,260,2013-06-18 12:55:00
7:55 AM,60.8,51.8,72,29.98,25.0,WNW,4.6,-,N/A,,Partly Cloudy,300,2013-06-18 13:55:00
8:55 AM,62.6,51.8,68,29.96,25.0,ESE,2.3,-,N/A,,Partly Cloudy,120,2013-06-18 14:55:00
9:55 AM,68.0,50.0,52,29.94,25.0,SE,3.5,-,N/A,,Partly Cloudy,130,2013-06-18 15:55:00
10:55 AM,75.2,50.0,41,29.91,25.0,ESE,8.1,-,N/A,,Scattered Clouds,110,2013-06-18 16:55:00
11:55 AM,80.6,46.4,30,29.86,25.0,East,5.8,-,N/A,,Scattered Clouds,100,2013-06-18 17:55:00
12:55 PM,86.0,42.8,22,29.80,25.0,South,4.6,24.2,N/A,,Scattered Clouds,180,2013-06-18 18:55:00
1:55 PM,78.8,46.4,32,29.81,10.0,NW,13.8,19.6,N/A,Rain-Thunderstorm,Light Thunderstorms and Rain,310,2013-06-18 19:55:00
2:20 PM,68.0,57.2,68,30.06,10.0,West,4.6,-,N/A,Rain-Thunderstorm-Tornado,Funnel Cloud,260,2013-06-18 20:20:00
2:39 PM,68.0,51.8,56,30.04,10.0,NNW,16.1,21.9,N/A,Thunderstorm,Thunderstorm,340,2013-06-18 20:39:00
2:51 PM,73.4,39.2,29,30.05,10.0,South,13.8,-,N/A,Thunderstorm,Mostly Cloudy,170,2013-06-18 20:51:00
2:55 PM,75.2,42.8,31,29.83,10.0,South,13.8,21.9,N/A,Thunderstorm,Mostly Cloudy,170,2013-06-18 20:55:00
3:55 PM,77.0,44.6,32,29.80,10.0,East,11.5,-,N/A,,Mostly Cloudy,90,2013-06-18 21:55:00
4:55 PM,80.6,41.0,24,29.79,10.0,ESE,13.8,-,N/A,,Mostly Cloudy,110,2013-06-18 22:55:00
5:55 PM,77.0,42.8,29,29.78,10.0,SE,20.7,26.5,N/A,,Mostly Cloudy,140,2013-06-18 23:55:00
6:55 PM,69.8,48.2,46,29.80,10.0,SSE,18.4,25.3,N/A,,Mostly Cloudy,150,2013-06-19 00:55:00
7:55 PM,68.0,48.2,49,29.79,10.0,SE,21.9,-,N/A,,Mostly Cloudy,140,2013-06-19 01:55:00
8:55 PM,62.6,48.2,59,29.81,10.0,SE,17.3,-,N/A,,Mostly Cloudy,140,2013-06-19 02:55:00
9:55 PM,64.4,44.6,49,29.78,10.0,SSE,13.8,-,N/A,Thunderstorm,Mostly Cloudy,150,2013-06-19 03:55:00
10:55 PM,66.2,44.6,46,29.78,10.0,SSE,15.0,-,N/A,,Mostly Cloudy,160,2013-06-19 04:55:00
11:55 PM,62.6,44.6,52,29.81,10.0,SSE,17.3,26.5,N/A,,Mostly Cloudy,150,2013-06-19 05:55:00